createdAt,value
2023-03-30T00:00:01.250Z,2.87
2023-03-30T00:02:31.897Z,2.60
2023-03-30T00:05:03.435Z,3.40
2023-03-30T00:07:30.517Z,3.20
2023-03-30T00:09:58.534Z,3.50
2023-03-30T00:12:25.087Z,3.77
2023-03-30T00:14:51.728Z,5.10
2023-03-30T00:17:18.645Z,4.40
2023-03-30T00:19:45.989Z,4.00
2023-03-30T00:22:12.744Z,4.80
2023-03-30T00:24:39.317Z,4.47
2023-03-30T00:27:05.995Z,4.60
2023-03-30T00:29:32.524Z,4.93
2023-03-30T00:31:59.267Z,4.23
2023-03-30T00:34:25.931Z,4.43
2023-03-30T00:36:53.541Z,5.00
2023-03-30T00:39:23.148Z,4.80
2023-03-30T00:41:49.744Z,5.70
2023-03-30T00:44:53.811Z,4.27
2023-03-30T00:47:21.738Z,4.83
2023-03-30T00:49:48.584Z,3.87
2023-03-30T00:52:19.394Z,4.20
2023-03-30T00:54:46.410Z,3.40
2023-03-30T00:57:13.750Z,3.70
2023-03-30T00:59:40.856Z,6.43
2023-03-30T01:02:08.351Z,5.53
2023-03-30T01:04:37.580Z,3.60
2023-03-30T01:07:04.823Z,3.80
2023-03-30T01:09:31.402Z,3.00
2023-03-30T01:11:58.044Z,3.20
2023-03-30T01:14:24.787Z,4.40
2023-03-30T01:16:51.419Z,5.33
2023-03-30T01:19:58.698Z,5.23
2023-03-30T01:22:31.224Z,4.63
2023-03-30T01:25:21.111Z,3.70
2023-03-30T01:28:05.910Z,3.27
2023-03-30T01:31:14.601Z,3.00
2023-03-30T01:33:50.324Z,3.20
2023-03-30T01:36:41.878Z,3.37
2023-03-30T01:39:33.360Z,3.33
2023-03-30T01:42:36.312Z,3.25
2023-03-30T01:45:08.921Z,3.20
2023-03-30T01:47:43.520Z,3.77
2023-03-30T01:50:17.469Z,3.87
2023-03-30T01:53:02.893Z,2.93
2023-03-30T01:55:39.117Z,3.10
2023-03-30T01:58:23.558Z,2.97
2023-03-30T02:00:52.010Z,3.33
2023-03-30T02:03:30.605Z,3.33
2023-03-30T02:06:05.525Z,7.67
2023-03-30T02:08:33.314Z,8.80
2023-03-30T02:11:00.215Z,9.23
2023-03-30T02:13:34.301Z,8.08
2023-03-30T02:16:07.487Z,6.13
2023-03-30T02:18:34.220Z,4.53
2023-03-30T02:21:02.396Z,4.17
2023-03-30T02:23:41.731Z,4.01
2023-03-30T02:26:08.929Z,4.43
2023-03-30T02:28:35.800Z,3.80
2023-03-30T02:31:04.191Z,4.53
2023-03-30T02:33:47.116Z,12.97
2023-03-30T02:36:19.827Z,7.47
2023-03-30T02:38:57.526Z,5.50
2023-03-30T02:41:45.765Z,3.87
2023-03-30T02:44:27.550Z,4.50
2023-03-30T02:47:30.320Z,4.20
2023-03-30T02:50:00.425Z,3.03
2023-03-30T02:52:46.135Z,3.10
2023-03-30T02:55:23.703Z,2.90
2023-03-30T02:57:56.024Z,3.20
2023-03-30T03:00:30.396Z,4.77
2023-03-30T03:02:59.746Z,4.60
2023-03-30T03:05:27.118Z,4.97
2023-03-30T03:07:53.868Z,6.23
2023-03-30T03:10:21.138Z,6.20
2023-03-30T03:12:47.866Z,4.80
2023-03-30T03:15:14.487Z,4.97
2023-03-30T03:17:41.842Z,4.03
2023-03-30T03:20:10.626Z,4.83
2023-03-30T03:22:37.340Z,4.60
2023-03-30T03:25:05.807Z,5.07
2023-03-30T03:27:32.467Z,8.63
2023-03-30T03:29:59.159Z,8.23
2023-03-30T03:32:25.736Z,8.10
2023-03-30T03:34:52.368Z,8.23
2023-03-30T03:37:18.917Z,7.53
2023-03-30T03:39:45.616Z,8.70
2023-03-30T03:42:12.207Z,7.30
2023-03-30T03:44:40.593Z,5.10
2023-03-30T03:47:07.323Z,5.20
2023-03-30T03:49:33.880Z,3.40
2023-03-30T03:52:00.592Z,5.00
2023-03-30T03:54:27.194Z,6.67
2023-03-30T03:56:53.864Z,6.93
2023-03-30T03:59:20.745Z,13.47
2023-03-30T04:01:47.321Z,10.33
2023-03-30T04:04:14.021Z,8.87
2023-03-30T04:06:40.786Z,7.37
2023-03-30T04:09:07.415Z,6.73
2023-03-30T04:11:33.956Z,6.80
2023-03-30T04:14:00.506Z,5.03
2023-03-30T04:16:28.724Z,6.20
2023-03-30T04:18:55.415Z,6.93
2023-03-30T04:21:22.969Z,7.20
2023-03-30T04:23:50.146Z,6.73
2023-03-30T04:26:17.652Z,7.10
2023-03-30T04:28:44.425Z,7.53
2023-03-30T04:31:13.115Z,11.33
2023-03-30T04:33:53.190Z,24.90
2023-03-30T04:36:20.813Z,29.83
2023-03-30T04:39:04.207Z,27.80
2023-03-30T04:41:35.872Z,14.03
2023-03-30T04:44:03.962Z,16.13
2023-03-30T04:46:30.912Z,13.17
2023-03-30T04:48:57.971Z,10.30
2023-03-30T04:51:24.876Z,10.93
2023-03-30T04:53:51.481Z,9.63
2023-03-30T04:56:18.108Z,10.83
2023-03-30T04:58:45.006Z,9.47
2023-03-30T05:01:11.653Z,12.07
2023-03-30T05:03:38.644Z,11.67
2023-03-30T05:06:05.443Z,11.77
2023-03-30T05:08:33.465Z,11.73
2023-03-30T05:11:05.307Z,10.73
2023-03-30T05:13:32.153Z,11.80
2023-03-30T05:15:59.030Z,11.77
2023-03-30T05:18:25.646Z,11.80
2023-03-30T05:20:52.309Z,11.13
2023-03-30T05:23:18.886Z,12.03
2023-03-30T05:25:46.590Z,11.77
2023-03-30T05:28:13.273Z,10.67
2023-03-30T05:30:39.913Z,10.63
2023-03-30T05:33:09.766Z,12.63
2023-03-30T05:35:37.191Z,12.67
2023-03-30T05:38:04.469Z,12.07
2023-03-30T05:40:34.301Z,11.33
2023-03-30T05:43:02.617Z,10.10
2023-03-30T05:45:29.310Z,10.30
2023-03-30T05:47:56.147Z,10.43
2023-03-30T05:50:22.850Z,10.17
2023-03-30T05:52:49.514Z,9.70
2023-03-30T05:55:16.546Z,9.03
2023-03-30T05:57:43.252Z,8.67
2023-03-30T06:00:11.553Z,6.90
2023-03-30T06:02:38.546Z,8.13
2023-03-30T06:05:05.931Z,8.50
2023-03-30T06:07:33.274Z,8.77
2023-03-30T06:10:01.454Z,8.93
2023-03-30T06:12:28.150Z,8.13
2023-03-30T06:14:54.702Z,7.47
2023-03-30T06:17:21.444Z,6.60
2023-03-30T06:19:48.313Z,7.20
2023-03-30T06:22:14.988Z,5.67
2023-03-30T06:24:41.537Z,5.83
2023-03-30T06:27:08.346Z,3.60
2023-03-30T06:29:34.991Z,4.27
2023-03-30T06:32:03.670Z,4.33
2023-03-30T06:34:30.976Z,3.20
2023-03-30T06:36:58.213Z,6.07
2023-03-30T06:39:25.679Z,4.63
2023-03-30T06:41:52.390Z,2.93
2023-03-30T06:44:19.765Z,4.00
2023-03-30T06:46:47.020Z,3.87
2023-03-30T06:49:14.161Z,4.53
2023-03-30T06:51:42.089Z,3.83
2023-03-30T06:54:08.808Z,4.37
2023-03-30T06:56:35.419Z,4.43
2023-03-30T06:59:03.045Z,5.77
2023-03-30T07:01:29.835Z,4.50
2023-03-30T07:03:56.714Z,4.67
2023-03-30T07:06:24.358Z,4.70
2023-03-30T07:08:51.015Z,4.67
2023-03-30T07:11:17.609Z,6.90
2023-03-30T07:13:44.212Z,5.50
2023-03-30T07:16:10.912Z,4.70
2023-03-30T07:18:37.503Z,5.30
2023-03-30T07:21:04.861Z,5.10
2023-03-30T07:23:32.399Z,4.97
2023-03-30T07:25:59.104Z,5.27
2023-03-30T07:28:26.103Z,5.20
2023-03-30T07:30:53.051Z,5.05
2023-03-30T07:33:19.819Z,5.00
2023-03-30T07:35:47.465Z,5.07
2023-03-30T07:38:14.424Z,5.00
2023-03-30T07:40:41.281Z,5.63
2023-03-30T07:43:07.967Z,5.10
2023-03-30T07:45:34.734Z,5.30
2023-03-30T07:48:01.548Z,5.00
2023-03-30T07:50:28.236Z,5.27
2023-03-30T07:52:54.895Z,7.43
2023-03-30T07:55:21.626Z,5.00
2023-03-30T07:57:48.244Z,4.50
2023-03-30T08:00:15.421Z,4.80
2023-03-30T08:02:42.608Z,4.43
2023-03-30T08:05:09.726Z,4.50
2023-03-30T08:07:36.776Z,3.93
2023-03-30T08:10:03.968Z,4.73
2023-03-30T08:12:30.597Z,3.87
2023-03-30T08:14:57.129Z,5.07
2023-03-30T08:17:23.970Z,4.20
2023-03-30T08:19:50.546Z,3.40
2023-03-30T08:22:17.177Z,3.67
2023-03-30T08:24:43.768Z,4.60
2023-03-30T08:27:10.489Z,4.13
2023-03-30T08:29:37.189Z,3.80
2023-03-30T08:32:04.034Z,4.00
2023-03-30T08:34:32.115Z,4.33
2023-03-30T08:36:58.738Z,4.10
2023-03-30T08:39:25.754Z,4.43
2023-03-30T08:41:52.475Z,2.93
2023-03-30T08:44:31.260Z,3.63
2023-03-30T08:46:58.848Z,4.13
2023-03-30T08:49:26.825Z,4.13
2023-03-30T08:51:54.819Z,3.37
2023-03-30T08:54:23.125Z,3.30
2023-03-30T08:57:11.803Z,3.60
2023-03-30T08:59:54.550Z,2.97
2023-03-30T09:02:45.219Z,2.83
2023-03-30T09:05:37.548Z,2.80
2023-03-30T09:08:20.516Z,2.47
2023-03-30T09:10:54.846Z,4.07
2023-03-30T09:13:24.246Z,2.93
2023-03-30T09:16:14.740Z,2.77
2023-03-30T09:18:42.367Z,2.67
2023-03-30T09:21:10.646Z,2.93
2023-03-30T09:23:39.719Z,2.10
2023-03-30T09:26:20.379Z,3.10
2023-03-30T09:28:55.709Z,2.73
2023-03-30T09:31:48.022Z,3.07
2023-03-30T09:34:23.686Z,2.47
2023-03-30T09:36:53.237Z,2.70
2023-03-30T09:39:21.526Z,3.00
2023-03-30T09:41:57.164Z,2.30
2023-03-30T09:44:29.638Z,2.80
2023-03-30T09:46:58.832Z,2.40
2023-03-30T09:49:29.693Z,4.00
2023-03-30T09:52:05.931Z,2.50
2023-03-30T09:54:40.948Z,3.40
2023-03-30T09:57:32.260Z,2.70
2023-03-30T10:00:01.608Z,2.13
2023-03-30T10:02:31.361Z,2.00
2023-03-30T10:05:02.441Z,2.10
2023-03-30T10:07:33.386Z,1.67
2023-03-30T10:10:22.108Z,2.20
2023-03-30T10:12:49.757Z,2.57
2023-03-30T10:15:22.039Z,2.70
2023-03-30T10:17:51.394Z,2.33
2023-03-30T10:20:28.414Z,2.30
2023-03-30T10:23:19.043Z,2.07
2023-03-30T10:25:50.193Z,2.00
2023-03-30T10:28:28.030Z,2.50
2023-03-30T10:30:57.990Z,2.23
2023-03-30T10:33:25.406Z,1.97
2023-03-30T10:35:56.782Z,2.20
2023-03-30T10:38:24.587Z,2.20
2023-03-30T10:40:58.753Z,2.20
2023-03-30T10:43:30.453Z,2.75
2023-03-30T10:46:03.719Z,1.60
2023-03-30T10:49:04.289Z,1.70
2023-03-30T10:51:53.232Z,1.87
2023-03-30T10:54:40.845Z,2.10
2023-03-30T10:57:12.511Z,2.07
2023-03-30T10:59:54.319Z,2.37
2023-03-30T11:02:36.109Z,2.07
2023-03-30T11:05:15.809Z,2.20
2023-03-30T11:07:56.280Z,1.90
2023-03-30T11:10:32.195Z,2.30
2023-03-30T11:13:00.850Z,3.20
2023-03-30T11:15:33.632Z,1.80
2023-03-30T11:18:09.288Z,1.73
2023-03-30T11:20:41.868Z,1.90
2023-03-30T11:23:34.071Z,1.40
2023-03-30T11:26:03.489Z,1.60
2023-03-30T11:28:36.512Z,1.77
2023-03-30T11:31:11.944Z,1.60
2023-03-30T11:33:53.701Z,1.50
2023-03-30T11:36:31.233Z,1.70
2023-03-30T11:39:25.085Z,1.80
2023-03-30T11:42:04.219Z,1.50
2023-03-30T11:44:32.048Z,2.20
2023-03-30T11:47:25.406Z,1.80
2023-03-30T11:50:18.254Z,1.37
2023-03-30T11:53:27.344Z,1.20
2023-03-30T11:56:13.075Z,1.90
2023-03-30T11:58:47.791Z,2.00
2023-03-30T12:01:28.923Z,1.30
2023-03-30T12:04:29.200Z,1.30
2023-03-30T12:07:01.110Z,1.53
2023-03-30T12:09:45.978Z,1.57
2023-03-30T12:12:17.885Z,1.57
2023-03-30T12:15:02.116Z,1.27
2023-03-30T12:17:36.581Z,1.50
2023-03-30T12:20:10.053Z,1.90
2023-03-30T12:22:53.082Z,1.27
2023-03-30T12:25:39.533Z,1.30
2023-03-30T12:28:12.699Z,1.67
2023-03-30T12:30:44.005Z,2.00
2023-03-30T12:33:14.202Z,1.63
2023-03-30T12:35:50.206Z,2.00
2023-03-30T12:38:21.675Z,1.90
2023-03-30T12:41:04.075Z,1.80
2023-03-30T12:43:47.807Z,2.10
2023-03-30T12:46:20.200Z,2.10
2023-03-30T12:48:52.912Z,1.73
2023-03-30T12:51:31.994Z,1.80
2023-03-30T12:54:10.974Z,1.67
2023-03-30T12:56:44.325Z,1.97
2023-03-30T12:59:21.092Z,2.27
2023-03-30T13:01:56.707Z,1.60
2023-03-30T13:04:26.154Z,2.27
2023-03-30T13:06:56.496Z,1.60
2023-03-30T13:09:26.307Z,2.40
2023-03-30T13:11:52.834Z,2.83
2023-03-30T13:14:26.687Z,16.57
2023-03-30T13:16:53.373Z,6.30
2023-03-30T13:19:28.079Z,4.83
2023-03-30T13:22:12.635Z,29.87
2023-03-30T13:24:41.998Z,3.73
2023-03-30T13:27:14.342Z,3.47
2023-03-30T13:29:56.814Z,2.03
2023-03-30T13:32:57.351Z,2.17
2023-03-30T13:35:55.008Z,1.87
2023-03-30T13:38:28.175Z,1.90
2023-03-30T13:41:13.205Z,1.90
2023-03-30T13:44:08.009Z,5.33
2023-03-30T13:46:52.256Z,2.03
2023-03-30T13:49:34.055Z,1.97
2023-03-30T13:52:12.627Z,1.80
2023-03-30T13:54:40.457Z,1.90
2023-03-30T13:57:13.193Z,2.60
2023-03-30T13:59:43.974Z,2.20
2023-03-30T14:02:18.456Z,2.27
2023-03-30T14:04:45.449Z,2.00
2023-03-30T14:07:22.597Z,1.87
2023-03-30T14:10:12.700Z,1.93
2023-03-30T14:12:40.397Z,2.20
2023-03-30T14:15:42.679Z,2.20
2023-03-30T14:18:13.961Z,2.63
2023-03-30T14:20:45.729Z,2.73
2023-03-30T14:23:30.769Z,2.80
2023-03-30T14:26:03.480Z,2.10
2023-03-30T14:28:34.704Z,1.80
2023-03-30T14:31:07.938Z,2.20
2023-03-30T14:33:39.835Z,2.13
2023-03-30T14:36:08.938Z,2.30
2023-03-30T14:38:39.301Z,2.60
2023-03-30T14:41:08.558Z,1.87
2023-03-30T14:43:35.651Z,2.20
2023-03-30T14:46:06.373Z,2.10
2023-03-30T14:48:35.942Z,2.40
2023-03-30T14:51:03.850Z,2.77
2023-03-30T14:53:31.125Z,1.90
2023-03-30T14:55:59.921Z,2.10
2023-03-30T14:58:28.695Z,1.87
2023-03-30T15:01:00.479Z,2.90
2023-03-30T15:03:34.052Z,2.73
2023-03-30T15:06:03.257Z,4.67
2023-03-30T15:08:36.774Z,2.00
2023-03-30T15:11:16.561Z,1.83
2023-03-30T15:13:46.414Z,2.97
2023-03-30T15:16:19.739Z,2.60
2023-03-30T15:18:46.402Z,3.67
2023-03-30T15:21:13.931Z,3.03
2023-03-30T15:23:44.236Z,2.30
2023-03-30T15:26:12.253Z,3.00
2023-03-30T15:28:44.015Z,2.60
2023-03-30T15:31:12.674Z,1.80
2023-03-30T15:33:42.320Z,2.13
2023-03-30T15:36:24.121Z,3.10
2023-03-30T15:38:54.798Z,2.37
2023-03-30T15:41:24.046Z,3.20
2023-03-30T15:43:59.148Z,2.40
2023-03-30T15:46:28.252Z,1.80
2023-03-30T15:48:55.052Z,2.20
2023-03-30T15:51:24.770Z,2.10
2023-03-30T15:53:54.461Z,2.37
2023-03-30T15:56:39.552Z,2.93
2023-03-30T15:59:13.036Z,3.40
2023-03-30T16:02:03.684Z,2.97
2023-03-30T16:04:32.245Z,2.70
2023-03-30T16:06:58.838Z,4.07
2023-03-30T16:09:25.397Z,2.60
2023-03-30T16:11:52.167Z,5.97
2023-03-30T16:14:22.614Z,5.67
2023-03-30T16:16:50.023Z,3.53
2023-03-30T16:19:20.334Z,7.95
2023-03-30T16:21:47.009Z,6.67
2023-03-30T16:24:13.895Z,9.10
2023-03-30T16:26:40.630Z,10.17
2023-03-30T16:29:18.760Z,7.73
2023-03-30T16:31:45.426Z,6.63
2023-03-30T16:34:12.039Z,6.83
2023-03-30T16:36:38.632Z,12.33
2023-03-30T16:39:12.073Z,12.97
2023-03-30T16:41:38.699Z,11.53
2023-03-30T16:44:05.986Z,16.03
2023-03-30T16:46:33.285Z,18.30
2023-03-30T16:48:59.903Z,15.13
2023-03-30T16:51:26.425Z,22.33
2023-03-30T16:53:53.035Z,21.07
2023-03-30T16:56:19.934Z,23.37
2023-03-30T16:58:46.989Z,22.67
2023-03-30T17:01:18.363Z,24.20
2023-03-30T17:03:49.472Z,13.75
2023-03-30T17:06:17.154Z,13.50
2023-03-30T17:08:43.846Z,8.63
2023-03-30T17:11:13.361Z,7.13
2023-03-30T17:13:40.211Z,7.53
2023-03-30T17:16:07.806Z,11.40
2023-03-30T17:18:34.540Z,10.60
2023-03-30T17:21:02.584Z,17.03
2023-03-30T17:23:32.032Z,15.27
2023-03-30T17:25:59.976Z,29.27
2023-03-30T17:28:28.858Z,19.87
2023-03-30T17:30:59.010Z,25.37
2023-03-30T17:33:26.409Z,18.00
2023-03-30T17:36:02.012Z,13.13
2023-03-30T17:38:30.014Z,12.43
2023-03-30T17:40:57.438Z,10.17
2023-03-30T17:43:24.061Z,9.20
2023-03-30T17:45:51.000Z,14.00
2023-03-30T17:48:19.535Z,17.03
2023-03-30T17:50:50.877Z,13.03
2023-03-30T17:53:18.521Z,11.10
2023-03-30T17:55:47.109Z,12.20
2023-03-30T17:58:18.630Z,12.43
2023-03-30T18:00:46.963Z,14.47
2023-03-30T18:03:18.849Z,18.77
2023-03-30T18:05:46.313Z,9.60
2023-03-30T18:08:17.877Z,14.87
2023-03-30T18:10:47.960Z,19.50
2023-03-30T18:13:16.223Z,14.57
2023-03-30T18:15:43.491Z,12.70
2023-03-30T18:18:11.059Z,13.77
2023-03-30T18:20:46.530Z,11.53
2023-03-30T18:23:13.130Z,9.83
2023-03-30T18:25:39.739Z,10.37
2023-03-30T18:28:14.912Z,11.00
2023-03-30T18:30:41.564Z,10.27
2023-03-30T18:33:08.271Z,8.90
2023-03-30T18:35:36.595Z,8.83
2023-03-30T18:38:03.965Z,9.13
2023-03-30T18:40:33.307Z,9.60
2023-03-30T18:43:00.551Z,9.90
2023-03-30T18:45:33.887Z,9.73
2023-03-30T18:48:02.182Z,15.10
2023-03-30T18:50:35.120Z,14.07
2023-03-30T18:53:05.365Z,12.93
2023-03-30T18:55:34.172Z,17.17
2023-03-30T18:58:02.597Z,23.07
2023-03-30T19:00:31.377Z,20.00
2023-03-30T19:02:59.243Z,20.73
2023-03-30T19:05:27.903Z,17.33
2023-03-30T19:07:54.762Z,14.53
2023-03-30T19:10:23.856Z,14.23
2023-03-30T19:12:53.489Z,10.90
2023-03-30T19:15:23.477Z,10.87
2023-03-30T19:17:50.991Z,8.90
2023-03-30T19:20:18.812Z,6.90
2023-03-30T19:22:45.752Z,7.27
2023-03-30T19:25:13.072Z,10.57
2023-03-30T19:27:46.471Z,9.63
2023-03-30T19:30:20.108Z,6.73
2023-03-30T19:32:47.188Z,6.07
2023-03-30T19:35:14.802Z,4.77
2023-03-30T19:37:43.024Z,6.07
2023-03-30T19:40:16.278Z,5.37
2023-03-30T19:42:47.195Z,6.00
2023-03-30T19:45:15.482Z,4.20
2023-03-30T19:47:43.714Z,5.50
2023-03-30T19:50:15.069Z,4.07
2023-03-30T19:52:42.457Z,4.17
2023-03-30T19:55:10.045Z,3.85
2023-03-30T19:57:37.804Z,3.90
2023-03-30T20:00:12.335Z,3.30
2023-03-30T20:02:40.136Z,3.97
2023-03-30T20:05:07.348Z,3.60
2023-03-30T20:07:33.953Z,6.03
2023-03-30T20:10:00.681Z,5.50
2023-03-30T20:12:27.688Z,7.03
2023-03-30T20:14:55.698Z,6.40
2023-03-30T20:17:22.258Z,6.77
2023-03-30T20:19:48.841Z,5.70
2023-03-30T20:22:15.458Z,16.43
2023-03-30T20:24:44.037Z,11.13
2023-03-30T20:27:11.650Z,5.23
2023-03-30T20:29:38.140Z,13.60
2023-03-30T20:32:04.896Z,10.03
2023-03-30T20:34:31.633Z,7.30
2023-03-30T20:36:58.194Z,2.83
2023-03-30T20:39:27.055Z,2.10
2023-03-30T20:41:58.259Z,3.40
2023-03-30T20:44:30.055Z,2.33
2023-03-30T20:46:58.206Z,2.30
2023-03-30T20:49:25.802Z,2.03
2023-03-30T20:51:53.322Z,1.83
2023-03-30T20:54:20.827Z,1.60
2023-03-30T20:56:47.722Z,2.13
2023-03-30T20:59:14.361Z,1.93
2023-03-30T21:01:41.116Z,2.10
2023-03-30T21:04:08.327Z,1.80
2023-03-30T21:06:36.111Z,1.87
2023-03-30T21:09:05.313Z,2.27
2023-03-30T21:11:34.091Z,1.77
2023-03-30T21:14:02.237Z,2.13
2023-03-30T21:16:28.832Z,2.07
2023-03-30T21:18:55.524Z,1.97
2023-03-30T21:21:22.157Z,2.03
2023-03-30T21:23:48.875Z,1.77
2023-03-30T21:26:18.565Z,1.50
2023-03-30T21:28:45.583Z,1.93
2023-03-30T21:31:17.246Z,1.77
2023-03-30T21:33:44.315Z,2.00
2023-03-30T21:36:11.535Z,2.03
2023-03-30T21:38:38.496Z,1.73
2023-03-30T21:41:07.740Z,1.90
2023-03-30T21:43:44.049Z,2.00
2023-03-30T21:46:12.932Z,1.90
2023-03-30T21:48:40.744Z,1.70
2023-03-30T21:51:13.636Z,1.70
2023-03-30T21:53:41.732Z,1.70
2023-03-30T21:56:09.318Z,1.97
2023-03-30T21:58:36.032Z,1.90
2023-03-30T22:01:11.934Z,1.77
2023-03-30T22:03:43.257Z,2.03
2023-03-30T22:06:11.389Z,1.73
2023-03-30T22:08:38.173Z,1.53
2023-03-30T22:11:26.030Z,2.53
2023-03-30T22:13:54.373Z,1.97
2023-03-30T22:16:23.970Z,2.10
2023-03-30T22:18:51.251Z,1.70
2023-03-30T22:21:29.268Z,1.90
2023-03-30T22:23:56.112Z,1.97
2023-03-30T22:26:22.986Z,1.70
2023-03-30T22:28:49.553Z,2.03
2023-03-30T22:31:16.820Z,2.07
2023-03-30T22:33:43.845Z,1.57
2023-03-30T22:36:19.463Z,1.90
2023-03-30T22:38:47.223Z,2.03
2023-03-30T22:41:13.893Z,2.00
2023-03-30T22:43:41.125Z,1.70
2023-03-30T22:46:08.425Z,2.23
2023-03-30T22:48:35.707Z,2.37
2023-03-30T22:51:04.228Z,2.43
2023-03-30T22:53:32.543Z,3.73
2023-03-30T22:55:59.227Z,3.37
2023-03-30T22:58:26.030Z,3.60
2023-03-30T23:00:52.960Z,7.30
2023-03-30T23:03:19.578Z,2.73
2023-03-30T23:05:52.802Z,4.40
2023-03-30T23:08:19.376Z,5.67
2023-03-30T23:10:45.977Z,2.93
2023-03-30T23:13:13.995Z,13.13
2023-03-30T23:15:40.672Z,3.53
2023-03-30T23:18:07.356Z,2.60
2023-03-30T23:20:33.978Z,7.53
2023-03-30T23:23:00.587Z,14.63
2023-03-30T23:25:27.366Z,43.67
2023-03-30T23:27:54.012Z,4.97
2023-03-30T23:30:20.763Z,7.57
2023-03-30T23:32:47.369Z,6.47
2023-03-30T23:35:14.235Z,3.67
2023-03-30T23:37:41.048Z,3.37
2023-03-30T23:40:08.457Z,3.63
2023-03-30T23:42:35.101Z,4.37
2023-03-30T23:45:01.772Z,12.83
2023-03-30T23:47:28.592Z,11.97
2023-03-30T23:49:55.258Z,6.00
2023-03-30T23:52:21.900Z,4.90
2023-03-30T23:54:52.441Z,7.27
2023-03-30T23:57:20.051Z,5.47
2023-03-30T23:59:46.785Z,4.37
